createdAt,value
2018-04-25T00:00:45.136Z,5.60
2018-04-25T00:03:12.134Z,5.07
2018-04-25T00:05:39.153Z,5.40
2018-04-25T00:08:06.151Z,5.33
2018-04-25T00:10:33.910Z,5.80
2018-04-25T00:13:00.922Z,5.10
2018-04-25T00:15:27.928Z,6.33
2018-04-25T00:17:54.935Z,5.13
2018-04-25T00:20:21.937Z,6.33
2018-04-25T00:22:48.927Z,5.73
2018-04-25T00:25:15.911Z,5.57
2018-04-25T00:27:42.913Z,4.83
2018-04-25T00:30:09.924Z,5.07
2018-04-25T00:32:36.912Z,5.63
2018-04-25T00:35:03.912Z,5.83
2018-04-25T00:37:30.932Z,5.20
2018-04-25T00:39:58.689Z,4.97
2018-04-25T00:42:25.776Z,5.80
2018-04-25T00:44:52.786Z,5.73
2018-04-25T00:47:19.794Z,5.60
2018-04-25T00:49:46.774Z,5.90
2018-04-25T00:52:13.962Z,4.50
2018-04-25T00:54:40.956Z,4.97
2018-04-25T00:57:07.956Z,7.70
2018-04-25T00:59:34.952Z,5.10
2018-04-25T01:02:02.165Z,5.17
2018-04-25T01:04:29.155Z,5.37
2018-04-25T01:06:56.156Z,5.13
2018-04-25T01:09:23.164Z,5.83
2018-04-25T01:11:51.016Z,4.83
2018-04-25T01:14:17.982Z,4.80
2018-04-25T01:16:45.043Z,5.73
2018-04-25T01:19:12.043Z,4.87
2018-04-25T01:21:39.152Z,6.70
2018-04-25T01:24:06.152Z,4.80
2018-04-25T01:26:33.172Z,5.73
2018-04-25T01:29:00.169Z,5.30
2018-04-25T01:31:27.956Z,5.57
2018-04-25T01:33:54.954Z,8.40
2018-04-25T01:36:23.472Z,8.90
2018-04-25T01:38:50.468Z,4.47
2018-04-25T01:41:17.584Z,5.03
2018-04-25T01:43:44.584Z,5.40
2018-04-25T01:46:11.581Z,4.87
2018-04-25T01:48:38.579Z,4.50
2018-04-25T01:51:05.773Z,5.63
2018-04-25T01:53:32.772Z,5.80
2018-04-25T01:55:59.760Z,5.40
2018-04-25T01:58:26.758Z,4.57
2018-04-25T02:00:53.762Z,5.70
2018-04-25T02:03:20.759Z,5.17
2018-04-25T02:05:47.761Z,5.13
2018-04-25T02:08:14.742Z,6.00
2018-04-25T02:10:41.970Z,5.20
2018-04-25T02:13:08.956Z,5.03
2018-04-25T02:15:35.962Z,6.47
2018-04-25T02:18:02.969Z,5.43
2018-04-25T02:20:30.754Z,4.73
2018-04-25T02:22:57.756Z,4.70
2018-04-25T02:25:24.764Z,4.27
2018-04-25T02:27:51.748Z,5.00
2018-04-25T02:30:18.746Z,5.23
2018-04-25T02:32:45.748Z,5.23
2018-04-25T02:35:13.515Z,5.27
2018-04-25T02:37:40.512Z,7.10
2018-04-25T02:40:07.515Z,4.97
2018-04-25T02:42:34.596Z,4.70
2018-04-25T02:45:01.633Z,5.80
2018-04-25T02:47:28.640Z,4.80
2018-04-25T02:49:57.162Z,4.73
2018-04-25T02:52:24.223Z,4.50
2018-04-25T02:54:51.223Z,5.67
2018-04-25T02:57:18.223Z,7.27
2018-04-25T02:59:45.207Z,4.80
2018-04-25T03:02:12.811Z,5.00
2018-04-25T03:04:39.800Z,5.57
2018-04-25T03:07:06.811Z,4.87
2018-04-25T03:09:33.795Z,6.07
2018-04-25T03:12:01.008Z,7.03
2018-04-25T03:14:28.011Z,4.90
2018-04-25T03:16:55.074Z,5.33
2018-04-25T03:19:22.017Z,5.00
2018-04-25T03:21:49.824Z,5.00
2018-04-25T03:24:16.830Z,4.40
2018-04-25T03:26:43.821Z,4.30
2018-04-25T03:29:10.829Z,5.37
2018-04-25T03:31:38.623Z,4.70
2018-04-25T03:34:05.621Z,5.70
2018-04-25T03:36:32.616Z,5.63
2018-04-25T03:38:59.617Z,6.57
2018-04-25T03:41:26.816Z,4.00
2018-04-25T03:43:53.799Z,5.07
2018-04-25T03:46:20.812Z,7.93
2018-04-25T03:48:47.838Z,5.30
2018-04-25T03:51:15.627Z,5.20
2018-04-25T03:53:42.617Z,4.90
2018-04-25T03:56:09.630Z,6.30
2018-04-25T03:58:36.646Z,5.03
2018-04-25T04:01:03.806Z,4.80
2018-04-25T04:03:30.790Z,4.50
2018-04-25T04:05:57.784Z,6.70
2018-04-25T04:08:24.780Z,4.30
2018-04-25T04:10:51.803Z,7.93
2018-04-25T04:13:18.782Z,5.30
2018-04-25T04:15:45.788Z,9.00
2018-04-25T04:18:12.774Z,7.40
2018-04-25T04:20:39.979Z,9.60
2018-04-25T04:23:06.989Z,6.10
2018-04-25T04:25:33.980Z,6.50
2018-04-25T04:28:00.979Z,9.50
2018-04-25T04:30:27.966Z,9.53
2018-04-25T04:32:54.958Z,12.07
2018-04-25T04:35:21.978Z,10.20
2018-04-25T04:37:48.973Z,7.20
2018-04-25T04:40:15.979Z,7.47
2018-04-25T04:42:42.964Z,11.97
2018-04-25T04:45:10.729Z,4.67
2018-04-25T04:47:37.726Z,5.67
2018-04-25T04:50:05.289Z,6.97
2018-04-25T04:52:32.348Z,5.00
2018-04-25T04:54:59.331Z,6.70
2018-04-25T04:57:26.331Z,8.50
2018-04-25T04:59:53.334Z,11.20
2018-04-25T05:02:21.124Z,10.60
2018-04-25T05:04:48.137Z,13.03
2018-04-25T05:07:15.120Z,7.27
2018-04-25T05:09:42.126Z,6.90
2018-04-25T05:12:09.918Z,5.57
2018-04-25T05:14:36.922Z,7.40
2018-04-25T05:17:03.921Z,9.53
2018-04-25T05:19:30.936Z,9.60
2018-04-25T05:21:58.722Z,6.23
2018-04-25T05:24:25.817Z,15.37
2018-04-25T05:26:52.754Z,13.30
2018-04-25T05:29:19.764Z,13.93
2018-04-25T05:31:47.004Z,10.80
2018-04-25T05:34:13.966Z,13.83
2018-04-25T05:36:40.957Z,8.97
2018-04-25T05:39:07.956Z,13.07
2018-04-25T05:41:35.119Z,12.27
2018-04-25T05:44:02.111Z,13.93
2018-04-25T05:46:29.116Z,8.00
2018-04-25T05:48:56.140Z,9.10
2018-04-25T05:51:23.925Z,16.97
2018-04-25T05:53:50.926Z,11.40
2018-04-25T05:56:17.922Z,10.70
2018-04-25T05:58:44.915Z,9.70
2018-04-25T06:01:12.249Z,9.80
2018-04-25T06:03:39.235Z,13.93
2018-04-25T06:06:06.258Z,12.07
2018-04-25T06:08:33.252Z,8.40
2018-04-25T06:11:00.305Z,5.57
2018-04-25T06:13:27.302Z,10.32
2018-04-25T06:15:55.809Z,7.40
2018-04-25T06:18:22.796Z,14.70
2018-04-25T06:20:49.940Z,8.80
2018-04-25T06:23:16.928Z,6.97
2018-04-25T06:25:45.458Z,6.73
2018-04-25T06:28:12.480Z,10.53
2018-04-25T06:30:39.601Z,10.47
2018-04-25T06:33:06.605Z,8.10
2018-04-25T06:35:33.596Z,9.60
2018-04-25T06:38:00.595Z,8.77
2018-04-25T06:40:27.587Z,8.93
2018-04-25T06:42:54.575Z,7.13
2018-04-25T06:45:21.624Z,6.97
2018-04-25T06:47:48.603Z,7.03
2018-04-25T06:50:15.599Z,8.70
2018-04-25T06:52:43.372Z,10.50
2018-04-25T06:55:10.385Z,7.27
2018-04-25T06:57:37.397Z,7.90
2018-04-25T07:00:04.410Z,8.57
2018-04-25T07:02:32.204Z,8.40
2018-04-25T07:04:59.220Z,8.30
2018-04-25T07:07:26.221Z,9.87
2018-04-25T07:09:53.245Z,14.50
2018-04-25T07:12:20.410Z,16.43
2018-04-25T07:14:47.411Z,24.47
2018-04-25T07:17:15.076Z,17.30
2018-04-25T07:19:42.255Z,21.67
2018-04-25T07:22:10.224Z,17.17
2018-04-25T07:24:37.216Z,21.37
2018-04-25T07:27:04.227Z,16.17
2018-04-25T07:29:31.264Z,23.00
2018-04-25T07:31:58.413Z,25.30
2018-04-25T07:34:25.400Z,13.60
2018-04-25T07:36:52.398Z,24.60
2018-04-25T07:39:19.391Z,15.50
2018-04-25T07:41:46.576Z,15.70
2018-04-25T07:44:13.501Z,11.83
2018-04-25T07:46:40.507Z,15.03
2018-04-25T07:49:07.541Z,18.70
2018-04-25T07:51:34.706Z,16.63
2018-04-25T07:54:01.707Z,14.57
2018-04-25T07:56:28.704Z,48.53
2018-04-25T07:58:55.722Z,28.73
2018-04-25T08:01:22.870Z,21.27
2018-04-25T08:03:49.860Z,13.93
2018-04-25T08:06:30.069Z,20.13
2018-04-25T08:08:57.692Z,15.80
2018-04-25T08:11:24.788Z,15.80
2018-04-25T08:13:51.805Z,14.97
2018-04-25T08:16:18.804Z,16.63
2018-04-25T08:18:45.795Z,17.47
2018-04-25T08:21:12.804Z,14.07
2018-04-25T08:23:39.838Z,11.90
2018-04-25T08:26:06.825Z,18.33
2018-04-25T08:28:33.824Z,20.10
2018-04-25T08:31:00.967Z,20.57
2018-04-25T08:33:28.034Z,13.30
2018-04-25T08:35:54.987Z,10.67
2018-04-25T08:38:21.972Z,11.97
2018-04-25T08:40:49.799Z,14.87
2018-04-25T08:43:16.802Z,14.17
2018-04-25T08:45:43.792Z,11.70
2018-04-25T08:48:10.784Z,13.90
2018-04-25T08:50:38.568Z,13.53
2018-04-25T08:53:05.575Z,11.67
2018-04-25T08:55:34.078Z,14.60
2018-04-25T08:58:01.057Z,15.10
2018-04-25T09:00:28.085Z,7.93
2018-04-25T09:02:55.857Z,10.40
2018-04-25T09:05:22.860Z,8.97
2018-04-25T09:07:51.370Z,10.63
2018-04-25T09:10:18.381Z,14.77
2018-04-25T09:12:45.374Z,9.63
2018-04-25T09:15:12.362Z,11.10
2018-04-25T09:17:39.356Z,12.17
2018-04-25T09:20:06.350Z,8.80
2018-04-25T09:22:33.361Z,7.50
2018-04-25T09:25:00.358Z,5.70
2018-04-25T09:27:27.383Z,7.90
2018-04-25T09:29:54.389Z,8.30
2018-04-25T09:32:21.997Z,8.30
2018-04-25T09:34:49.011Z,8.50
2018-04-25T09:37:16.016Z,6.70
2018-04-25T09:39:43.019Z,7.57
2018-04-25T09:42:10.058Z,6.20
2018-04-25T09:44:37.062Z,6.07
2018-04-25T09:47:05.576Z,7.80
2018-04-25T09:49:32.589Z,10.10
2018-04-25T09:51:59.704Z,9.30
2018-04-25T09:54:26.695Z,7.50
2018-04-25T09:56:53.695Z,8.23
2018-04-25T09:59:20.687Z,11.10
2018-04-25T10:01:48.495Z,12.17
2018-04-25T10:04:15.478Z,55.60
2018-04-25T10:06:42.478Z,22.37
2018-04-25T10:09:09.519Z,28.57
2018-04-25T10:11:36.599Z,21.17
2018-04-25T10:14:03.588Z,21.03
2018-04-25T10:16:30.584Z,14.47
2018-04-25T10:18:57.584Z,20.23
2018-04-25T10:21:25.383Z,18.67
2018-04-25T10:23:52.406Z,14.93
2018-04-25T10:26:19.400Z,25.40
2018-04-25T10:28:46.431Z,18.33
2018-04-25T10:31:13.588Z,16.23
2018-04-25T10:33:40.605Z,14.03
2018-04-25T10:36:07.612Z,23.73
2018-04-25T10:38:34.617Z,22.37
2018-04-25T10:41:01.775Z,18.23
2018-04-25T10:43:28.788Z,15.97
2018-04-25T10:45:55.790Z,17.03
2018-04-25T10:48:22.804Z,18.43
2018-04-25T10:50:49.948Z,16.80
2018-04-25T10:53:16.957Z,14.77
2018-04-25T10:55:44.708Z,17.60
2018-04-25T10:58:11.692Z,15.00
2018-04-25T11:00:38.768Z,16.03
2018-04-25T11:03:05.755Z,14.27
2018-04-25T11:05:32.753Z,24.13
2018-04-25T11:07:59.762Z,13.80
2018-04-25T11:10:26.857Z,16.73
2018-04-25T11:12:53.848Z,13.63
2018-04-25T11:15:20.842Z,19.67
2018-04-25T11:17:47.835Z,14.90
2018-04-25T11:20:14.903Z,17.80
2018-04-25T11:22:41.860Z,19.73
2018-04-25T11:25:08.890Z,21.73
2018-04-25T11:27:35.875Z,16.33
2018-04-25T11:30:02.963Z,16.70
2018-04-25T11:32:29.967Z,18.40
2018-04-25T11:34:56.963Z,13.13
2018-04-25T11:37:25.487Z,21.63
2018-04-25T11:39:52.478Z,18.47
2018-04-25T11:42:19.594Z,16.10
2018-04-25T11:44:46.644Z,18.17
2018-04-25T11:47:14.033Z,14.83
2018-04-25T11:49:41.071Z,23.43
2018-04-25T11:52:08.225Z,14.70
2018-04-25T11:54:35.232Z,17.03
2018-04-25T11:57:02.226Z,15.13
2018-04-25T11:59:30.780Z,22.13
2018-04-25T12:01:57.834Z,15.80
2018-04-25T12:04:24.862Z,19.17
2018-04-25T12:06:51.999Z,17.60
2018-04-25T12:09:19.077Z,14.00
2018-04-25T12:11:46.272Z,15.83
2018-04-25T12:14:14.139Z,21.90
2018-04-25T12:16:41.185Z,20.03
2018-04-25T12:19:08.263Z,18.90
2018-04-25T12:21:35.492Z,15.83
2018-04-25T12:24:02.592Z,20.60
2018-04-25T12:26:30.607Z,15.23
2018-04-25T12:28:58.027Z,16.33
2018-04-25T12:31:25.081Z,18.20
2018-04-25T12:33:52.135Z,18.50
2018-04-25T12:36:19.202Z,14.20
2018-04-25T12:38:47.100Z,17.33
2018-04-25T12:41:14.994Z,18.23
2018-04-25T12:43:42.111Z,20.83
2018-04-25T12:46:09.904Z,15.83
2018-04-25T12:48:36.976Z,15.37
2018-04-25T12:51:04.177Z,22.77
2018-04-25T12:53:32.011Z,18.27
2018-04-25T12:55:59.059Z,14.10
2018-04-25T12:58:26.089Z,15.33
2018-04-25T13:00:53.102Z,12.97
2018-04-25T13:03:20.109Z,14.67
2018-04-25T13:05:47.107Z,23.97
2018-04-25T13:08:14.109Z,14.97
2018-04-25T13:10:41.910Z,25.17
2018-04-25T13:13:08.919Z,15.30
2018-04-25T13:15:35.916Z,15.63
2018-04-25T13:18:02.925Z,12.43
2018-04-25T13:20:30.738Z,15.63
2018-04-25T13:22:57.735Z,14.33
2018-04-25T13:25:24.765Z,18.07
2018-04-25T13:27:51.762Z,13.53
2018-04-25T13:30:18.751Z,17.23
2018-04-25T13:32:45.747Z,11.80
2018-04-25T13:35:12.757Z,11.80
2018-04-25T13:37:39.740Z,11.03
2018-04-25T13:40:06.744Z,8.90
2018-04-25T13:42:33.779Z,11.47
2018-04-25T13:45:00.775Z,21.30
2018-04-25T13:47:27.786Z,29.73
2018-04-25T13:49:54.795Z,12.57
2018-04-25T13:52:21.946Z,10.33
2018-04-25T13:54:48.932Z,8.50
2018-04-25T13:57:15.923Z,17.37
2018-04-25T13:59:42.929Z,11.93
2018-04-25T14:02:10.739Z,11.67
2018-04-25T14:04:37.726Z,12.03
2018-04-25T14:07:04.729Z,11.43
2018-04-25T14:09:31.714Z,14.77
2018-04-25T14:11:58.924Z,24.17
2018-04-25T14:14:25.934Z,15.50
2018-04-25T14:16:52.934Z,15.20
2018-04-25T14:19:19.944Z,18.90
2018-04-25T14:21:47.734Z,18.90
2018-04-25T14:24:14.725Z,14.07
2018-04-25T14:26:41.748Z,16.70
2018-04-25T14:29:08.756Z,18.33
2018-04-25T14:31:36.532Z,17.87
2018-04-25T14:34:03.562Z,10.13
2018-04-25T14:36:30.574Z,12.03
2018-04-25T14:38:59.098Z,11.87
2018-04-25T14:41:26.166Z,8.30
2018-04-25T14:43:53.160Z,12.93
2018-04-25T14:46:20.161Z,17.17
2018-04-25T14:48:47.168Z,8.73
2018-04-25T14:51:14.960Z,10.07
2018-04-25T14:53:41.961Z,13.60
2018-04-25T14:56:08.962Z,10.70
2018-04-25T14:58:35.955Z,18.47
2018-04-25T15:01:03.164Z,13.00
2018-04-25T15:03:30.195Z,10.03
2018-04-25T15:05:57.180Z,12.10
2018-04-25T15:08:24.180Z,12.83
2018-04-25T15:10:51.352Z,17.23
2018-04-25T15:13:18.346Z,9.50
2018-04-25T15:15:45.337Z,17.47
2018-04-25T15:18:12.340Z,13.20
2018-04-25T15:20:39.535Z,21.07
2018-04-25T15:23:06.532Z,11.10
2018-04-25T15:25:33.576Z,13.67
2018-04-25T15:28:00.560Z,10.33
2018-04-25T15:30:27.737Z,12.10
2018-04-25T15:32:54.725Z,8.70
2018-04-25T15:35:22.522Z,9.43
2018-04-25T15:37:50.300Z,8.33
2018-04-25T15:40:17.508Z,9.03
2018-04-25T15:42:44.511Z,12.67
2018-04-25T15:45:12.194Z,7.63
2018-04-25T15:47:39.188Z,9.63
2018-04-25T15:50:06.937Z,7.87
2018-04-25T15:52:33.924Z,10.87
2018-04-25T15:55:00.918Z,9.80
2018-04-25T15:57:27.919Z,7.60
2018-04-25T15:59:54.912Z,7.77
2018-04-25T16:02:22.117Z,6.70
2018-04-25T16:04:49.099Z,6.77
2018-04-25T16:07:16.098Z,6.63
2018-04-25T16:09:43.092Z,5.00
2018-04-25T16:12:10.250Z,7.57
2018-04-25T16:14:37.220Z,13.73
2018-04-25T16:17:04.318Z,8.97
2018-04-25T16:19:31.252Z,8.37
2018-04-25T16:21:58.387Z,6.20
2018-04-25T16:24:25.375Z,4.43
2018-04-25T16:26:52.422Z,6.73
2018-04-25T16:29:19.415Z,13.27
2018-04-25T16:31:46.578Z,6.30
2018-04-25T16:34:13.575Z,5.30
2018-04-25T16:36:40.601Z,7.07
2018-04-25T16:39:07.586Z,4.43
2018-04-25T16:41:35.396Z,5.40
2018-04-25T16:44:02.373Z,7.10
2018-04-25T16:46:29.365Z,6.27
2018-04-25T16:48:57.116Z,3.83
2018-04-25T16:51:24.200Z,6.20
2018-04-25T16:53:51.191Z,4.40
2018-04-25T16:56:18.187Z,3.63
2018-04-25T16:58:45.169Z,4.37
2018-04-25T17:01:12.199Z,7.70
2018-04-25T17:03:39.187Z,5.63
2018-04-25T17:06:06.171Z,7.50
2018-04-25T17:08:33.175Z,8.67
2018-04-25T17:11:00.364Z,8.80
2018-04-25T17:13:27.368Z,6.13
2018-04-25T17:15:55.900Z,6.70
2018-04-25T17:18:22.901Z,6.03
2018-04-25T17:20:50.003Z,3.47
2018-04-25T17:23:17.013Z,5.07
2018-04-25T17:25:44.015Z,6.60
2018-04-25T17:28:11.039Z,4.50
2018-04-25T17:30:38.193Z,10.10
2018-04-25T17:33:05.182Z,8.53
2018-04-25T17:35:32.188Z,7.07
2018-04-25T17:37:59.171Z,8.97
2018-04-25T17:40:27.504Z,4.47
2018-04-25T17:42:54.562Z,10.67
2018-04-25T17:45:21.880Z,5.27
2018-04-25T17:47:49.048Z,7.87
2018-04-25T17:50:16.710Z,4.50
2018-04-25T17:52:43.694Z,8.27
2018-04-25T17:55:10.711Z,5.73
2018-04-25T17:57:37.726Z,5.13
2018-04-25T18:00:04.735Z,10.33
2018-04-25T18:02:31.753Z,4.77
2018-04-25T18:04:58.760Z,7.07
2018-04-25T18:07:26.532Z,8.03
2018-04-25T18:09:53.528Z,3.73
2018-04-25T18:12:20.662Z,4.90
2018-04-25T18:14:47.660Z,10.07
2018-04-25T18:17:14.661Z,8.23
2018-04-25T18:19:43.068Z,3.37
2018-04-25T18:22:10.094Z,6.90
2018-04-25T18:24:37.093Z,3.47
2018-04-25T18:27:04.102Z,3.37
2018-04-25T18:29:31.114Z,7.40
2018-04-25T18:31:58.281Z,6.40
2018-04-25T18:34:25.306Z,4.80
2018-04-25T18:36:52.292Z,3.50
2018-04-25T18:39:19.292Z,7.10
2018-04-25T18:41:46.461Z,5.50
2018-04-25T18:44:13.479Z,5.93
2018-04-25T18:46:40.500Z,3.20
2018-04-25T18:49:07.601Z,3.90
2018-04-25T18:51:34.740Z,5.80
2018-04-25T18:54:01.767Z,3.37
2018-04-25T18:56:29.550Z,4.17
2018-04-25T18:58:56.551Z,3.10
2018-04-25T19:01:23.658Z,4.97
2018-04-25T19:03:50.642Z,4.83
2018-04-25T19:06:17.652Z,10.73
2018-04-25T19:08:44.642Z,7.50
2018-04-25T19:11:11.863Z,8.13
2018-04-25T19:13:38.864Z,4.90
2018-04-25T19:16:05.858Z,7.50
2018-04-25T19:18:32.876Z,6.90
2018-04-25T19:21:01.065Z,5.30
2018-04-25T19:23:28.089Z,10.60
2018-04-25T19:25:55.928Z,14.83
2018-04-25T19:28:22.868Z,8.40
2018-04-25T19:30:49.880Z,4.30
2018-04-25T19:33:16.860Z,3.23
2018-04-25T19:35:43.866Z,4.00
2018-04-25T19:38:10.989Z,3.87
2018-04-25T19:40:39.069Z,4.90
2018-04-25T19:43:06.058Z,3.90
2018-04-25T19:45:33.064Z,7.80
2018-04-25T19:48:00.070Z,4.20
2018-04-25T19:50:27.273Z,3.30
2018-04-25T19:52:54.279Z,3.00
2018-04-25T19:55:21.259Z,3.10
2018-04-25T19:57:48.251Z,5.77
2018-04-25T20:00:15.269Z,4.10
2018-04-25T20:02:42.265Z,2.70
2018-04-25T20:05:09.421Z,7.03
2018-04-25T20:07:37.207Z,4.13
2018-04-25T20:10:04.220Z,3.47
2018-04-25T20:12:31.226Z,4.73
2018-04-25T20:14:58.209Z,2.93
2018-04-25T20:17:26.141Z,5.33
2018-04-25T20:19:53.142Z,2.70
2018-04-25T20:22:20.940Z,3.60
2018-04-25T20:24:47.943Z,2.70
2018-04-25T20:27:15.030Z,10.90
2018-04-25T20:29:42.039Z,2.60
2018-04-25T20:32:09.142Z,2.60
2018-04-25T20:34:36.130Z,5.33
2018-04-25T20:37:03.126Z,2.53
2018-04-25T20:39:30.122Z,2.33
2018-04-25T20:41:57.328Z,4.60
2018-04-25T20:44:24.310Z,2.30
2018-04-25T20:46:51.311Z,3.30
2018-04-25T20:49:18.309Z,4.30
2018-04-25T20:51:45.311Z,2.50
2018-04-25T20:54:12.340Z,6.00
2018-04-25T20:56:39.350Z,4.83
2018-04-25T20:59:06.340Z,4.43
2018-04-25T21:01:33.496Z,2.30
2018-04-25T21:04:00.492Z,3.60
2018-04-25T21:06:27.493Z,3.67
2018-04-25T21:08:54.495Z,2.33
2018-04-25T21:11:21.695Z,3.63
2018-04-25T21:13:48.700Z,2.63
2018-04-25T21:16:15.696Z,4.90
2018-04-25T21:18:42.694Z,2.63
2018-04-25T21:21:10.511Z,2.60
2018-04-25T21:23:37.508Z,3.40
2018-04-25T21:26:04.502Z,5.23
2018-04-25T21:28:31.493Z,2.70
2018-04-25T21:30:58.698Z,2.17
2018-04-25T21:33:25.691Z,2.47
2018-04-25T21:35:53.451Z,6.00
2018-04-25T21:38:20.494Z,3.43
2018-04-25T21:40:47.505Z,5.00
2018-04-25T21:43:14.507Z,2.13
2018-04-25T21:45:41.501Z,3.73
2018-04-25T21:48:08.513Z,2.50
2018-04-25T21:50:36.303Z,4.20
2018-04-25T21:53:03.346Z,2.67
2018-04-25T21:55:30.339Z,3.10
2018-04-25T21:57:57.344Z,1.83
2018-04-25T22:00:24.491Z,2.07
2018-04-25T22:02:51.479Z,4.00
2018-04-25T22:05:18.514Z,3.77
2018-04-25T22:07:45.510Z,2.40
2018-04-25T22:10:12.507Z,2.17
2018-04-25T22:12:39.496Z,2.17
2018-04-25T22:15:06.499Z,4.30
2018-04-25T22:17:33.495Z,2.20
2018-04-25T22:20:01.253Z,3.00
2018-04-25T22:22:28.243Z,2.20
2018-04-25T22:24:55.236Z,2.00
2018-04-25T22:27:22.999Z,8.60
2018-04-25T22:29:50.013Z,1.60
2018-04-25T22:32:17.151Z,1.80
2018-04-25T22:34:44.147Z,3.20
2018-04-25T22:37:11.134Z,1.47
2018-04-25T22:39:38.116Z,2.23
2018-04-25T22:42:05.324Z,1.93
2018-04-25T22:44:32.315Z,2.83
2018-04-25T22:46:59.324Z,1.80
2018-04-25T22:49:26.336Z,2.60
2018-04-25T22:51:54.138Z,2.00
2018-04-25T22:54:21.160Z,3.70
2018-04-25T22:56:48.184Z,5.57
2018-04-25T22:59:15.174Z,2.20
2018-04-25T23:01:42.324Z,2.73
2018-04-25T23:04:09.334Z,2.70
2018-04-25T23:06:36.332Z,4.20
2018-04-25T23:09:03.331Z,2.10
2018-04-25T23:11:30.419Z,3.03
2018-04-25T23:13:57.424Z,2.00
2018-04-25T23:16:24.418Z,1.40
2018-04-25T23:18:51.407Z,1.40
2018-04-25T23:21:19.221Z,2.70
2018-04-25T23:23:46.228Z,3.13
2018-04-25T23:26:13.246Z,1.93
2018-04-25T23:28:41.756Z,4.07
2018-04-25T23:31:08.957Z,1.50
2018-04-25T23:33:35.955Z,1.43
2018-04-25T23:36:03.768Z,1.50
2018-04-25T23:38:30.771Z,3.27
2018-04-25T23:40:57.852Z,1.17
2018-04-25T23:43:24.855Z,1.20
2018-04-25T23:45:53.352Z,1.50
2018-04-25T23:48:20.359Z,1.47
2018-04-25T23:50:47.485Z,1.30
2018-04-25T23:53:14.468Z,1.57
2018-04-25T23:55:41.478Z,1.40
2018-04-25T23:58:08.478Z,1.30
